sensor_id;sensor_type;location;lat;lon;timestamp;temperature;humidity
14357;DHT22;7262;48.764;9.166;2023-04-25T00:00:12;8.60;99.90
14357;DHT22;7262;48.764;9.166;2023-04-25T00:02:38;8.70;99.90
14357;DHT22;7262;48.764;9.166;2023-04-25T00:05:05;8.70;99.90
14357;DHT22;7262;48.764;9.166;2023-04-25T00:07:33;8.70;99.90
14357;DHT22;7262;48.764;9.166;2023-04-25T00:10:00;8.70;99.90
14357;DHT22;7262;48.764;9.166;2023-04-25T00:12:27;8.70;99.90
14357;DHT22;7262;48.764;9.166;2023-04-25T00:14:54;8.70;99.90
14357;DHT22;7262;48.764;9.166;2023-04-25T00:17:23;8.70;99.90
14357;DHT22;7262;48.764;9.166;2023-04-25T00:19:50;8.70;99.90
14357;DHT22;7262;48.764;9.166;2023-04-25T00:22:17;8.70;99.90
14357;DHT22;7262;48.764;9.166;2023-04-25T00:24:44;8.70;99.90
14357;DHT22;7262;48.764;9.166;2023-04-25T00:27:11;8.70;99.90
14357;DHT22;7262;48.764;9.166;2023-04-25T00:29:38;8.70;99.90
14357;DHT22;7262;48.764;9.166;2023-04-25T00:32:04;8.70;99.90
14357;DHT22;7262;48.764;9.166;2023-04-25T00:34:33;8.60;99.90
14357;DHT22;7262;48.764;9.166;2023-04-25T00:36:59;8.60;99.90
14357;DHT22;7262;48.764;9.166;2023-04-25T00:39:27;8.60;99.90
14357;DHT22;7262;48.764;9.166;2023-04-25T00:41:56;8.70;99.90
14357;DHT22;7262;48.764;9.166;2023-04-25T00:44:25;8.60;99.90
14357;DHT22;7262;48.764;9.166;2023-04-25T00:46:54;8.60;99.90
14357;DHT22;7262;48.764;9.166;2023-04-25T00:49:21;8.60;99.90
14357;DHT22;7262;48.764;9.166;2023-04-25T00:51:49;8.60;99.90
14357;DHT22;7262;48.764;9.166;2023-04-25T00:54:16;8.60;99.90
14357;DHT22;7262;48.764;9.166;2023-04-25T00:56:44;8.60;99.90
14357;DHT22;7262;48.764;9.166;2023-04-25T00:59:11;8.60;99.90
14357;DHT22;7262;48.764;9.166;2023-04-25T01:01:39;8.60;99.90
14357;DHT22;7262;48.764;9.166;2023-04-25T01:04:06;8.60;99.90
14357;DHT22;7262;48.764;9.166;2023-04-25T01:06:33;8.60;99.90
14357;DHT22;7262;48.764;9.166;2023-04-25T01:09:01;8.60;99.90
14357;DHT22;7262;48.764;9.166;2023-04-25T01:11:28;8.60;99.90
14357;DHT22;7262;48.764;9.166;2023-04-25T01:13:55;8.60;99.90
14357;DHT22;7262;48.764;9.166;2023-04-25T01:16:21;8.60;99.90
14357;DHT22;7262;48.764;9.166;2023-04-25T01:18:49;8.70;99.90
14357;DHT22;7262;48.764;9.166;2023-04-25T01:21:18;8.70;99.90
14357;DHT22;7262;48.764;9.166;2023-04-25T01:23:44;8.70;99.90
14357;DHT22;7262;48.764;9.166;2023-04-25T01:26:11;8.70;99.90
14357;DHT22;7262;48.764;9.166;2023-04-25T01:28:39;8.70;99.90
14357;DHT22;7262;48.764;9.166;2023-04-25T01:31:06;8.70;99.90
14357;DHT22;7262;48.764;9.166;2023-04-25T01:33:33;8.60;99.90
14357;DHT22;7262;48.764;9.166;2023-04-25T01:35:59;8.60;99.90
14357;DHT22;7262;48.764;9.166;2023-04-25T01:38:28;8.60;99.90
14357;DHT22;7262;48.764;9.166;2023-04-25T01:40:55;8.60;99.90
14357;DHT22;7262;48.764;9.166;2023-04-25T01:43:22;8.60;99.90
14357;DHT22;7262;48.764;9.166;2023-04-25T01:45:49;8.60;99.90
14357;DHT22;7262;48.764;9.166;2023-04-25T01:48:16;8.50;99.90
14357;DHT22;7262;48.764;9.166;2023-04-25T01:50:43;8.50;99.90
14357;DHT22;7262;48.764;9.166;2023-04-25T01:53:10;8.50;99.90
14357;DHT22;7262;48.764;9.166;2023-04-25T01:55:40;8.50;99.90
14357;DHT22;7262;48.764;9.166;2023-04-25T01:58:06;8.50;99.90
14357;DHT22;7262;48.764;9.166;2023-04-25T02:00:37;8.50;99.90
14357;DHT22;7262;48.764;9.166;2023-04-25T02:03:04;8.50;99.90
14357;DHT22;7262;48.764;9.166;2023-04-25T02:05:33;8.40;99.90
14357;DHT22;7262;48.764;9.166;2023-04-25T02:08:07;8.40;99.90
14357;DHT22;7262;48.764;9.166;2023-04-25T02:10:40;8.40;99.90
14357;DHT22;7262;48.764;9.166;2023-04-25T02:13:06;8.40;99.90
14357;DHT22;7262;48.764;9.166;2023-04-25T02:15:33;8.40;99.90
14357;DHT22;7262;48.764;9.166;2023-04-25T02:18:00;8.40;99.90
14357;DHT22;7262;48.764;9.166;2023-04-25T02:20:28;8.40;99.90
14357;DHT22;7262;48.764;9.166;2023-04-25T02:22:55;8.40;99.90
14357;DHT22;7262;48.764;9.166;2023-04-25T02:25:22;8.40;99.90
14357;DHT22;7262;48.764;9.166;2023-04-25T02:27:50;8.40;99.90
14357;DHT22;7262;48.764;9.166;2023-04-25T02:30:20;8.50;99.90
14357;DHT22;7262;48.764;9.166;2023-04-25T02:32:47;8.40;99.90
14357;DHT22;7262;48.764;9.166;2023-04-25T02:35:14;8.40;99.90
14357;DHT22;7262;48.764;9.166;2023-04-25T02:37:41;8.40;99.90
14357;DHT22;7262;48.764;9.166;2023-04-25T02:40:09;8.50;99.90
14357;DHT22;7262;48.764;9.166;2023-04-25T02:42:36;8.40;99.90
14357;DHT22;7262;48.764;9.166;2023-04-25T02:45:05;8.40;99.90
14357;DHT22;7262;48.764;9.166;2023-04-25T02:47:33;8.40;99.90
14357;DHT22;7262;48.764;9.166;2023-04-25T02:50:00;8.40;99.90
14357;DHT22;7262;48.764;9.166;2023-04-25T02:52:27;8.40;99.90
14357;DHT22;7262;48.764;9.166;2023-04-25T02:54:54;8.30;99.90
14357;DHT22;7262;48.764;9.166;2023-04-25T02:57:21;8.30;99.90
14357;DHT22;7262;48.764;9.166;2023-04-25T02:59:47;8.30;99.90
14357;DHT22;7262;48.764;9.166;2023-04-25T03:02:15;8.20;99.90
14357;DHT22;7262;48.764;9.166;2023-04-25T03:04:42;8.20;99.90
14357;DHT22;7262;48.764;9.166;2023-04-25T03:07:09;8.20;99.90
14357;DHT22;7262;48.764;9.166;2023-04-25T03:09:40;8.20;99.90
14357;DHT22;7262;48.764;9.166;2023-04-25T03:12:06;8.10;99.90
14357;DHT22;7262;48.764;9.166;2023-04-25T03:14:33;8.20;99.90
14357;DHT22;7262;48.764;9.166;2023-04-25T03:17:00;8.20;99.90
14357;DHT22;7262;48.764;9.166;2023-04-25T03:19:28;8.30;99.90
14357;DHT22;7262;48.764;9.166;2023-04-25T03:21:54;8.20;99.90
14357;DHT22;7262;48.764;9.166;2023-04-25T03:24:21;8.20;99.90
14357;DHT22;7262;48.764;9.166;2023-04-25T03:26:48;8.20;99.90
14357;DHT22;7262;48.764;9.166;2023-04-25T03:29:15;8.20;99.90
14357;DHT22;7262;48.764;9.166;2023-04-25T03:31:41;8.20;99.90
14357;DHT22;7262;48.764;9.166;2023-04-25T03:34:08;8.20;99.90
14357;DHT22;7262;48.764;9.166;2023-04-25T03:36:36;8.20;99.90
14357;DHT22;7262;48.764;9.166;2023-04-25T03:39:03;8.20;99.90
14357;DHT22;7262;48.764;9.166;2023-04-25T03:41:29;8.20;99.90
14357;DHT22;7262;48.764;9.166;2023-04-25T03:43:56;8.20;99.90
14357;DHT22;7262;48.764;9.166;2023-04-25T03:46:23;8.10;99.90
14357;DHT22;7262;48.764;9.166;2023-04-25T03:48:50;8.10;99.90
14357;DHT22;7262;48.764;9.166;2023-04-25T03:51:16;8.10;99.90
14357;DHT22;7262;48.764;9.166;2023-04-25T03:53:45;8.10;99.90
14357;DHT22;7262;48.764;9.166;2023-04-25T03:56:11;8.00;99.90
14357;DHT22;7262;48.764;9.166;2023-04-25T03:58:38;8.00;99.90
14357;DHT22;7262;48.764;9.166;2023-04-25T04:01:05;7.90;99.90
14357;DHT22;7262;48.764;9.166;2023-04-25T04:03:33;7.90;99.90
14357;DHT22;7262;48.764;9.166;2023-04-25T04:06:00;7.90;99.90
14357;DHT22;7262;48.764;9.166;2023-04-25T04:08:27;7.90;99.90
14357;DHT22;7262;48.764;9.166;2023-04-25T04:10:57;8.00;99.90
14357;DHT22;7262;48.764;9.166;2023-04-25T04:13:28;7.90;99.90
14357;DHT22;7262;48.764;9.166;2023-04-25T04:15:56;7.90;99.90
14357;DHT22;7262;48.764;9.166;2023-04-25T04:18:24;7.80;99.90
14357;DHT22;7262;48.764;9.166;2023-04-25T04:20:51;7.80;99.90
14357;DHT22;7262;48.764;9.166;2023-04-25T04:23:18;7.80;99.90
14357;DHT22;7262;48.764;9.166;2023-04-25T04:25:45;7.70;99.90
14357;DHT22;7262;48.764;9.166;2023-04-25T04:28:13;7.80;99.90
14357;DHT22;7262;48.764;9.166;2023-04-25T04:30:41;7.70;99.90
14357;DHT22;7262;48.764;9.166;2023-04-25T04:33:11;7.70;99.90
14357;DHT22;7262;48.764;9.166;2023-04-25T04:35:38;7.60;99.90
14357;DHT22;7262;48.764;9.166;2023-04-25T04:38:04;7.70;99.90
14357;DHT22;7262;48.764;9.166;2023-04-25T04:40:31;7.70;99.90
14357;DHT22;7262;48.764;9.166;2023-04-25T04:42:58;7.80;99.90
14357;DHT22;7262;48.764;9.166;2023-04-25T04:45:26;7.80;99.90
14357;DHT22;7262;48.764;9.166;2023-04-25T04:47:53;7.90;99.90
14357;DHT22;7262;48.764;9.166;2023-04-25T04:50:20;8.00;99.90
14357;DHT22;7262;48.764;9.166;2023-04-25T04:52:48;7.90;99.90
14357;DHT22;7262;48.764;9.166;2023-04-25T04:55:15;8.00;99.90
14357;DHT22;7262;48.764;9.166;2023-04-25T04:57:41;8.10;99.90
14357;DHT22;7262;48.764;9.166;2023-04-25T05:00:08;8.10;99.90
14357;DHT22;7262;48.764;9.166;2023-04-25T05:02:38;8.20;99.90
14357;DHT22;7262;48.764;9.166;2023-04-25T05:05:05;8.20;99.90
14357;DHT22;7262;48.764;9.166;2023-04-25T05:07:32;8.20;99.90
14357;DHT22;7262;48.764;9.166;2023-04-25T05:09:59;8.30;99.90
14357;DHT22;7262;48.764;9.166;2023-04-25T05:12:26;8.20;99.90
14357;DHT22;7262;48.764;9.166;2023-04-25T05:14:53;8.30;99.90
14357;DHT22;7262;48.764;9.166;2023-04-25T05:17:20;8.30;99.90
14357;DHT22;7262;48.764;9.166;2023-04-25T05:19:48;8.20;99.90
14357;DHT22;7262;48.764;9.166;2023-04-25T05:22:15;8.40;99.90
14357;DHT22;7262;48.764;9.166;2023-04-25T05:24:42;8.50;99.90
14357;DHT22;7262;48.764;9.166;2023-04-25T05:27:09;8.60;99.90
14357;DHT22;7262;48.764;9.166;2023-04-25T05:29:35;8.60;99.90
14357;DHT22;7262;48.764;9.166;2023-04-25T05:32:02;8.70;99.90
14357;DHT22;7262;48.764;9.166;2023-04-25T05:34:29;8.70;99.90
14357;DHT22;7262;48.764;9.166;2023-04-25T05:36:57;8.70;99.90
14357;DHT22;7262;48.764;9.166;2023-04-25T05:39:25;8.80;99.90
14357;DHT22;7262;48.764;9.166;2023-04-25T05:41:55;9.00;99.90
14357;DHT22;7262;48.764;9.166;2023-04-25T05:44:21;9.20;99.90
14357;DHT22;7262;48.764;9.166;2023-04-25T05:46:48;9.40;99.90
14357;DHT22;7262;48.764;9.166;2023-04-25T05:49:15;9.70;99.90
14357;DHT22;7262;48.764;9.166;2023-04-25T05:51:41;9.80;99.90
14357;DHT22;7262;48.764;9.166;2023-04-25T05:54:09;9.70;99.90
14357;DHT22;7262;48.764;9.166;2023-04-25T05:56:36;9.80;99.90
14357;DHT22;7262;48.764;9.166;2023-04-25T05:59:03;9.70;99.90
14357;DHT22;7262;48.764;9.166;2023-04-25T06:01:32;9.60;99.90
14357;DHT22;7262;48.764;9.166;2023-04-25T06:04:01;9.40;99.90
14357;DHT22;7262;48.764;9.166;2023-04-25T06:06:28;9.50;99.90
14357;DHT22;7262;48.764;9.166;2023-04-25T06:08:55;9.50;99.90
14357;DHT22;7262;48.764;9.166;2023-04-25T06:11:23;9.50;99.90
14357;DHT22;7262;48.764;9.166;2023-04-25T06:13:50;9.40;99.90
14357;DHT22;7262;48.764;9.166;2023-04-25T06:16:17;9.30;99.90
14357;DHT22;7262;48.764;9.166;2023-04-25T06:18:43;9.20;99.90
14357;DHT22;7262;48.764;9.166;2023-04-25T06:21:10;9.20;99.90
14357;DHT22;7262;48.764;9.166;2023-04-25T06:23:37;9.30;99.90
14357;DHT22;7262;48.764;9.166;2023-04-25T06:26:04;9.30;99.90
14357;DHT22;7262;48.764;9.166;2023-04-25T06:28:32;9.40;99.90
14357;DHT22;7262;48.764;9.166;2023-04-25T06:30:59;9.30;99.90
14357;DHT22;7262;48.764;9.166;2023-04-25T06:33:25;9.20;99.90
14357;DHT22;7262;48.764;9.166;2023-04-25T06:35:52;9.30;99.90
14357;DHT22;7262;48.764;9.166;2023-04-25T06:38:19;9.30;99.90
14357;DHT22;7262;48.764;9.166;2023-04-25T06:40:46;9.30;99.90
14357;DHT22;7262;48.764;9.166;2023-04-25T06:43:13;9.30;99.90
14357;DHT22;7262;48.764;9.166;2023-04-25T06:45:44;9.20;99.90
14357;DHT22;7262;48.764;9.166;2023-04-25T06:48:12;9.00;99.90
14357;DHT22;7262;48.764;9.166;2023-04-25T06:50:39;8.90;99.90
14357;DHT22;7262;48.764;9.166;2023-04-25T06:53:08;8.80;99.90
14357;DHT22;7262;48.764;9.166;2023-04-25T06:55:37;8.80;99.90
14357;DHT22;7262;48.764;9.166;2023-04-25T06:58:07;8.80;99.90
14357;DHT22;7262;48.764;9.166;2023-04-25T07:00:34;8.80;99.90
14357;DHT22;7262;48.764;9.166;2023-04-25T07:03:03;8.90;99.90
14357;DHT22;7262;48.764;9.166;2023-04-25T07:05:31;8.90;99.90
14357;DHT22;7262;48.764;9.166;2023-04-25T07:07:58;9.00;99.90
14357;DHT22;7262;48.764;9.166;2023-04-25T07:10:25;9.00;99.90
14357;DHT22;7262;48.764;9.166;2023-04-25T07:12:52;9.00;99.90
14357;DHT22;7262;48.764;9.166;2023-04-25T07:15:18;9.10;99.90
14357;DHT22;7262;48.764;9.166;2023-04-25T07:17:45;9.00;99.90
14357;DHT22;7262;48.764;9.166;2023-04-25T07:20:13;9.00;99.90
14357;DHT22;7262;48.764;9.166;2023-04-25T07:22:41;8.90;99.90
14357;DHT22;7262;48.764;9.166;2023-04-25T07:25:08;8.80;99.90
14357;DHT22;7262;48.764;9.166;2023-04-25T07:27:35;8.60;99.90
14357;DHT22;7262;48.764;9.166;2023-04-25T07:32:38;8.50;99.90
14357;DHT22;7262;48.764;9.166;2023-04-25T07:35:05;8.40;99.90
14357;DHT22;7262;48.764;9.166;2023-04-25T07:37:33;8.50;99.90
14357;DHT22;7262;48.764;9.166;2023-04-25T07:40:00;8.50;99.90
14357;DHT22;7262;48.764;9.166;2023-04-25T07:42:29;8.40;99.90
14357;DHT22;7262;48.764;9.166;2023-04-25T07:44:55;8.40;99.90
14357;DHT22;7262;48.764;9.166;2023-04-25T07:47:22;8.20;99.90
14357;DHT22;7262;48.764;9.166;2023-04-25T07:49:52;8.30;99.90
14357;DHT22;7262;48.764;9.166;2023-04-25T07:52:18;8.30;99.90
14357;DHT22;7262;48.764;9.166;2023-04-25T07:54:48;8.20;99.90
14357;DHT22;7262;48.764;9.166;2023-04-25T07:57:14;8.20;99.90
14357;DHT22;7262;48.764;9.166;2023-04-25T07:59:42;8.30;99.90
14357;DHT22;7262;48.764;9.166;2023-04-25T08:02:12;8.30;99.90
14357;DHT22;7262;48.764;9.166;2023-04-25T08:04:38;8.30;99.90
14357;DHT22;7262;48.764;9.166;2023-04-25T08:07:06;8.30;99.90
14357;DHT22;7262;48.764;9.166;2023-04-25T08:09:32;8.20;99.90
14357;DHT22;7262;48.764;9.166;2023-04-25T08:12:02;8.30;99.90
14357;DHT22;7262;48.764;9.166;2023-04-25T08:14:29;8.20;99.90
14357;DHT22;7262;48.764;9.166;2023-04-25T08:17:01;8.10;99.90
14357;DHT22;7262;48.764;9.166;2023-04-25T08:19:30;8.10;99.90
14357;DHT22;7262;48.764;9.166;2023-04-25T08:21:57;8.20;99.90
14357;DHT22;7262;48.764;9.166;2023-04-25T08:24:24;8.10;99.90
14357;DHT22;7262;48.764;9.166;2023-04-25T08:26:51;8.00;99.90
14357;DHT22;7262;48.764;9.166;2023-04-25T08:29:19;8.10;99.90
14357;DHT22;7262;48.764;9.166;2023-04-25T08:31:46;7.80;99.90
14357;DHT22;7262;48.764;9.166;2023-04-25T08:34:13;7.90;99.90
14357;DHT22;7262;48.764;9.166;2023-04-25T08:36:40;8.10;99.90
14357;DHT22;7262;48.764;9.166;2023-04-25T08:39:07;8.10;99.90
14357;DHT22;7262;48.764;9.166;2023-04-25T08:41:35;8.20;99.90
14357;DHT22;7262;48.764;9.166;2023-04-25T08:44:03;8.10;99.90
14357;DHT22;7262;48.764;9.166;2023-04-25T08:46:31;8.20;99.90
14357;DHT22;7262;48.764;9.166;2023-04-25T08:49:00;8.20;99.90
14357;DHT22;7262;48.764;9.166;2023-04-25T08:51:27;8.30;99.90
14357;DHT22;7262;48.764;9.166;2023-04-25T08:53:57;8.10;99.90
14357;DHT22;7262;48.764;9.166;2023-04-25T08:56:26;8.10;99.90
14357;DHT22;7262;48.764;9.166;2023-04-25T08:58:54;8.20;99.90
14357;DHT22;7262;48.764;9.166;2023-04-25T09:03:58;8.30;99.90
14357;DHT22;7262;48.764;9.166;2023-04-25T09:06:25;8.30;99.90
14357;DHT22;7262;48.764;9.166;2023-04-25T09:08:53;8.20;99.90
14357;DHT22;7262;48.764;9.166;2023-04-25T09:19:08;8.20;99.90
14357;DHT22;7262;48.764;9.166;2023-04-25T09:32:13;8.20;99.90
14357;DHT22;7262;48.764;9.166;2023-04-25T09:34:42;8.10;99.90
14357;DHT22;7262;48.764;9.166;2023-04-25T09:37:10;8.00;99.90
14357;DHT22;7262;48.764;9.166;2023-04-25T09:39:37;7.90;99.90
14357;DHT22;7262;48.764;9.166;2023-04-25T09:42:04;8.00;99.90
14357;DHT22;7262;48.764;9.166;2023-04-25T09:44:30;8.10;99.90
14357;DHT22;7262;48.764;9.166;2023-04-25T09:46:57;8.10;99.90
14357;DHT22;7262;48.764;9.166;2023-04-25T09:49:24;8.10;99.90
14357;DHT22;7262;48.764;9.166;2023-04-25T09:51:56;8.20;99.90
14357;DHT22;7262;48.764;9.166;2023-04-25T09:54:26;8.10;99.90
14357;DHT22;7262;48.764;9.166;2023-04-25T09:56:53;8.10;99.90
14357;DHT22;7262;48.764;9.166;2023-04-25T09:59:20;8.20;99.90
14357;DHT22;7262;48.764;9.166;2023-04-25T10:01:48;8.30;99.90
14357;DHT22;7262;48.764;9.166;2023-04-25T10:04:18;8.40;99.90
14357;DHT22;7262;48.764;9.166;2023-04-25T10:06:45;8.20;99.90
14357;DHT22;7262;48.764;9.166;2023-04-25T10:09:15;8.20;99.90
14357;DHT22;7262;48.764;9.166;2023-04-25T10:11:44;8.00;99.90
14357;DHT22;7262;48.764;9.166;2023-04-25T10:14:12;8.10;99.90
14357;DHT22;7262;48.764;9.166;2023-04-25T10:16:39;8.20;99.90
14357;DHT22;7262;48.764;9.166;2023-04-25T10:19:08;8.20;99.90
14357;DHT22;7262;48.764;9.166;2023-04-25T10:21:35;8.10;99.90
14357;DHT22;7262;48.764;9.166;2023-04-25T10:24:03;8.10;99.90
14357;DHT22;7262;48.764;9.166;2023-04-25T10:26:32;8.10;99.90
14357;DHT22;7262;48.764;9.166;2023-04-25T10:28:59;7.90;99.90
14357;DHT22;7262;48.764;9.166;2023-04-25T10:31:26;8.10;99.90
14357;DHT22;7262;48.764;9.166;2023-04-25T10:33:53;8.10;99.90
14357;DHT22;7262;48.764;9.166;2023-04-25T10:36:20;7.90;99.90
14357;DHT22;7262;48.764;9.166;2023-04-25T10:38:48;7.90;99.90
14357;DHT22;7262;48.764;9.166;2023-04-25T10:41:17;7.90;99.90
14357;DHT22;7262;48.764;9.166;2023-04-25T10:43:47;7.90;99.90
14357;DHT22;7262;48.764;9.166;2023-04-25T10:46:15;8.00;99.90
14357;DHT22;7262;48.764;9.166;2023-04-25T10:48:45;8.00;99.90
14357;DHT22;7262;48.764;9.166;2023-04-25T10:51:12;8.00;99.90
14357;DHT22;7262;48.764;9.166;2023-04-25T10:53:43;8.10;99.90
14357;DHT22;7262;48.764;9.166;2023-04-25T10:56:10;8.00;99.90
14357;DHT22;7262;48.764;9.166;2023-04-25T10:58:41;8.00;99.90
14357;DHT22;7262;48.764;9.166;2023-04-25T11:03:47;7.80;99.90
14357;DHT22;7262;48.764;9.166;2023-04-25T11:06:20;7.60;99.90
14357;DHT22;7262;48.764;9.166;2023-04-25T11:08:50;7.60;99.90
14357;DHT22;7262;48.764;9.166;2023-04-25T11:11:17;7.40;99.90
14357;DHT22;7262;48.764;9.166;2023-04-25T11:13:44;7.40;99.90
14357;DHT22;7262;48.764;9.166;2023-04-25T11:16:11;7.40;99.90
14357;DHT22;7262;48.764;9.166;2023-04-25T11:18:40;7.60;99.90
14357;DHT22;7262;48.764;9.166;2023-04-25T11:21:08;7.50;99.90
14357;DHT22;7262;48.764;9.166;2023-04-25T11:23:35;7.50;99.90
14357;DHT22;7262;48.764;9.166;2023-04-25T11:26:02;7.50;99.90
14357;DHT22;7262;48.764;9.166;2023-04-25T11:28:28;7.40;99.90
14357;DHT22;7262;48.764;9.166;2023-04-25T11:30:55;7.50;99.90
14357;DHT22;7262;48.764;9.166;2023-04-25T11:33:23;7.60;99.90
14357;DHT22;7262;48.764;9.166;2023-04-25T11:35:50;7.70;99.90
14357;DHT22;7262;48.764;9.166;2023-04-25T11:38:18;7.90;99.90
14357;DHT22;7262;48.764;9.166;2023-04-25T11:40:46;8.00;99.90
14357;DHT22;7262;48.764;9.166;2023-04-25T11:43:15;7.90;99.90
14357;DHT22;7262;48.764;9.166;2023-04-25T11:45:45;7.90;99.90
14357;DHT22;7262;48.764;9.166;2023-04-25T11:48:12;8.00;99.90
14357;DHT22;7262;48.764;9.166;2023-04-25T11:50:41;8.20;99.90
14357;DHT22;7262;48.764;9.166;2023-04-25T11:53:07;8.20;99.90
14357;DHT22;7262;48.764;9.166;2023-04-25T11:55:37;8.10;99.90
14357;DHT22;7262;48.764;9.166;2023-04-25T11:58:04;8.20;99.90
14357;DHT22;7262;48.764;9.166;2023-04-25T12:00:31;8.10;99.90
14357;DHT22;7262;48.764;9.166;2023-04-25T12:02:58;8.10;99.90
14357;DHT22;7262;48.764;9.166;2023-04-25T12:05:26;7.90;99.90
14357;DHT22;7262;48.764;9.166;2023-04-25T12:07:53;8.00;99.90
14357;DHT22;7262;48.764;9.166;2023-04-25T12:10:24;7.90;99.90
14357;DHT22;7262;48.764;9.166;2023-04-25T12:12:52;8.20;99.90
14357;DHT22;7262;48.764;9.166;2023-04-25T12:15:23;8.30;99.90
14357;DHT22;7262;48.764;9.166;2023-04-25T12:17:52;8.50;99.90
14357;DHT22;7262;48.764;9.166;2023-04-25T12:20:19;8.40;99.90
14357;DHT22;7262;48.764;9.166;2023-04-25T12:22:49;8.30;99.90
14357;DHT22;7262;48.764;9.166;2023-04-25T12:28:10;8.40;99.90
14357;DHT22;7262;48.764;9.166;2023-04-25T12:30:51;8.40;99.90
14357;DHT22;7262;48.764;9.166;2023-04-25T12:33:18;8.40;99.90
14357;DHT22;7262;48.764;9.166;2023-04-25T12:35:45;8.40;99.90
14357;DHT22;7262;48.764;9.166;2023-04-25T12:38:20;8.50;99.90
14357;DHT22;7262;48.764;9.166;2023-04-25T12:40:46;8.70;99.90
14357;DHT22;7262;48.764;9.166;2023-04-25T12:43:14;8.90;99.90
14357;DHT22;7262;48.764;9.166;2023-04-25T12:45:41;8.80;99.90
14357;DHT22;7262;48.764;9.166;2023-04-25T12:48:08;8.80;99.90
14357;DHT22;7262;48.764;9.166;2023-04-25T12:50:38;9.00;99.90
14357;DHT22;7262;48.764;9.166;2023-04-25T12:53:06;9.30;99.90
14357;DHT22;7262;48.764;9.166;2023-04-25T12:55:33;9.60;99.90
14357;DHT22;7262;48.764;9.166;2023-04-25T12:58:00;9.80;99.90
14357;DHT22;7262;48.764;9.166;2023-04-25T13:00:30;10.00;99.90
14357;DHT22;7262;48.764;9.166;2023-04-25T13:02:59;10.30;99.90
14357;DHT22;7262;48.764;9.166;2023-04-25T13:05:27;10.50;99.90
14357;DHT22;7262;48.764;9.166;2023-04-25T13:07:55;10.80;99.90
14357;DHT22;7262;48.764;9.166;2023-04-25T13:10:22;10.70;99.90
14357;DHT22;7262;48.764;9.166;2023-04-25T13:12:49;11.30;99.90
14357;DHT22;7262;48.764;9.166;2023-04-25T13:15:16;11.50;99.90
14357;DHT22;7262;48.764;9.166;2023-04-25T13:17:45;11.10;99.90
14357;DHT22;7262;48.764;9.166;2023-04-25T13:20:12;10.90;99.90
14357;DHT22;7262;48.764;9.166;2023-04-25T13:22:41;11.10;99.90
14357;DHT22;7262;48.764;9.166;2023-04-25T13:25:08;11.20;99.90
14357;DHT22;7262;48.764;9.166;2023-04-25T13:27:35;11.20;99.90
14357;DHT22;7262;48.764;9.166;2023-04-25T13:30:06;11.10;99.90
14357;DHT22;7262;48.764;9.166;2023-04-25T13:32:33;10.90;99.90
14357;DHT22;7262;48.764;9.166;2023-04-25T13:35:03;10.70;99.90
14357;DHT22;7262;48.764;9.166;2023-04-25T13:37:30;10.80;99.90
14357;DHT22;7262;48.764;9.166;2023-04-25T13:39:58;10.70;99.90
14357;DHT22;7262;48.764;9.166;2023-04-25T13:42:25;10.80;99.90
14357;DHT22;7262;48.764;9.166;2023-04-25T13:44:52;10.80;99.90
14357;DHT22;7262;48.764;9.166;2023-04-25T13:47:20;10.70;99.90
14357;DHT22;7262;48.764;9.166;2023-04-25T13:49:47;10.70;99.90
14357;DHT22;7262;48.764;9.166;2023-04-25T13:52:15;10.60;99.90
14357;DHT22;7262;48.764;9.166;2023-04-25T13:54:42;10.60;99.90
14357;DHT22;7262;48.764;9.166;2023-04-25T13:57:08;10.50;99.90
14357;DHT22;7262;48.764;9.166;2023-04-25T13:59:37;10.50;99.90
14357;DHT22;7262;48.764;9.166;2023-04-25T14:02:03;10.90;99.90
14357;DHT22;7262;48.764;9.166;2023-04-25T14:04:30;11.50;99.90
14357;DHT22;7262;48.764;9.166;2023-04-25T14:06:58;11.80;99.90
14357;DHT22;7262;48.764;9.166;2023-04-25T14:09:26;11.80;99.90
14357;DHT22;7262;48.764;9.166;2023-04-25T14:11:53;11.90;99.90
14357;DHT22;7262;48.764;9.166;2023-04-25T14:14:20;12.10;99.90
14357;DHT22;7262;48.764;9.166;2023-04-25T14:16:47;13.40;99.90
14357;DHT22;7262;48.764;9.166;2023-04-25T14:19:15;15.20;99.90
14357;DHT22;7262;48.764;9.166;2023-04-25T14:21:42;15.60;99.90
14357;DHT22;7262;48.764;9.166;2023-04-25T14:24:09;15.80;99.90
14357;DHT22;7262;48.764;9.166;2023-04-25T14:26:38;15.40;99.90
14357;DHT22;7262;48.764;9.166;2023-04-25T14:29:05;14.40;99.90
14357;DHT22;7262;48.764;9.166;2023-04-25T14:31:32;14.60;99.90
14357;DHT22;7262;48.764;9.166;2023-04-25T14:33:59;15.70;99.90
14357;DHT22;7262;48.764;9.166;2023-04-25T14:36:25;16.60;99.90
14357;DHT22;7262;48.764;9.166;2023-04-25T14:38:53;16.60;99.90
14357;DHT22;7262;48.764;9.166;2023-04-25T14:41:19;16.60;99.90
14357;DHT22;7262;48.764;9.166;2023-04-25T14:43:48;16.10;99.90
14357;DHT22;7262;48.764;9.166;2023-04-25T14:46:15;15.00;99.90
14357;DHT22;7262;48.764;9.166;2023-04-25T14:48:42;13.60;99.90
14357;DHT22;7262;48.764;9.166;2023-04-25T14:51:09;12.90;99.90
14357;DHT22;7262;48.764;9.166;2023-04-25T14:53:39;12.50;99.90
14357;DHT22;7262;48.764;9.166;2023-04-25T14:56:07;12.40;99.90
14357;DHT22;7262;48.764;9.166;2023-04-25T14:58:34;12.60;99.90
14357;DHT22;7262;48.764;9.166;2023-04-25T15:01:02;12.50;99.90
14357;DHT22;7262;48.764;9.166;2023-04-25T15:03:29;12.50;99.90
14357;DHT22;7262;48.764;9.166;2023-04-25T15:05:57;12.90;99.90
14357;DHT22;7262;48.764;9.166;2023-04-25T15:08:23;13.40;99.90
14357;DHT22;7262;48.764;9.166;2023-04-25T15:10:56;13.70;99.90
14357;DHT22;7262;48.764;9.166;2023-04-25T15:13:23;14.00;99.90
14357;DHT22;7262;48.764;9.166;2023-04-25T15:15:50;14.00;99.90
14357;DHT22;7262;48.764;9.166;2023-04-25T15:18:21;13.70;99.90
14357;DHT22;7262;48.764;9.166;2023-04-25T15:20:49;13.50;99.90
14357;DHT22;7262;48.764;9.166;2023-04-25T15:23:17;13.40;99.90
14357;DHT22;7262;48.764;9.166;2023-04-25T15:25:43;12.80;99.90
14357;DHT22;7262;48.764;9.166;2023-04-25T15:28:10;12.50;99.90
14357;DHT22;7262;48.764;9.166;2023-04-25T15:30:39;12.00;99.90
14357;DHT22;7262;48.764;9.166;2023-04-25T15:33:06;11.90;99.90
14357;DHT22;7262;48.764;9.166;2023-04-25T15:35:41;11.70;99.90
14357;DHT22;7262;48.764;9.166;2023-04-25T15:38:07;11.90;99.90
14357;DHT22;7262;48.764;9.166;2023-04-25T15:40:35;12.10;99.90
14357;DHT22;7262;48.764;9.166;2023-04-25T15:43:04;12.20;99.90
14357;DHT22;7262;48.764;9.166;2023-04-25T15:45:32;11.90;99.90
14357;DHT22;7262;48.764;9.166;2023-04-25T15:48:00;11.70;99.90
14357;DHT22;7262;48.764;9.166;2023-04-25T15:50:27;11.60;99.90
14357;DHT22;7262;48.764;9.166;2023-04-25T15:52:55;11.40;99.90
14357;DHT22;7262;48.764;9.166;2023-04-25T15:55:22;11.60;99.90
14357;DHT22;7262;48.764;9.166;2023-04-25T15:57:51;11.30;99.90
14357;DHT22;7262;48.764;9.166;2023-04-25T16:00:17;11.40;99.90
14357;DHT22;7262;48.764;9.166;2023-04-25T16:02:46;11.30;99.90
14357;DHT22;7262;48.764;9.166;2023-04-25T16:05:13;11.30;99.90
14357;DHT22;7262;48.764;9.166;2023-04-25T16:07:41;11.20;99.90
14357;DHT22;7262;48.764;9.166;2023-04-25T16:10:10;11.10;99.90
14357;DHT22;7262;48.764;9.166;2023-04-25T16:12:37;11.10;99.90
14357;DHT22;7262;48.764;9.166;2023-04-25T16:15:04;11.00;99.90
14357;DHT22;7262;48.764;9.166;2023-04-25T16:17:32;10.90;99.90
14357;DHT22;7262;48.764;9.166;2023-04-25T16:19:58;10.80;99.90
14357;DHT22;7262;48.764;9.166;2023-04-25T16:22:26;10.80;99.90
14357;DHT22;7262;48.764;9.166;2023-04-25T16:24:53;10.80;99.90
14357;DHT22;7262;48.764;9.166;2023-04-25T16:27:21;10.80;99.90